createdAt,value
2022-12-07T00:00:55.345Z,100.00
2022-12-07T00:04:01.769Z,100.00
2022-12-07T00:07:05.185Z,100.00
2022-12-07T00:10:08.168Z,100.00
2022-12-07T00:13:10.543Z,100.00
2022-12-07T00:16:14.710Z,100.00
2022-12-07T00:19:17.007Z,100.00
2022-12-07T00:22:19.618Z,100.00
2022-12-07T00:25:21.900Z,100.00
2022-12-07T00:28:24.385Z,100.00
2022-12-07T00:31:28.840Z,100.00
2022-12-07T00:34:31.564Z,100.00
2022-12-07T00:37:33.846Z,100.00
2022-12-07T00:40:36.356Z,100.00
2022-12-07T00:43:38.972Z,100.00
2022-12-07T00:46:41.638Z,100.00
2022-12-07T00:49:43.882Z,100.00
2022-12-07T00:52:46.382Z,100.00
2022-12-07T00:55:48.745Z,100.00
2022-12-07T00:58:52.542Z,100.00
2022-12-07T01:01:54.835Z,100.00
2022-12-07T01:04:57.711Z,100.00
2022-12-07T01:07:59.921Z,100.00
2022-12-07T01:11:04.968Z,100.00
2022-12-07T01:14:07.241Z,100.00
2022-12-07T01:17:09.842Z,100.00
2022-12-07T01:20:12.488Z,100.00
2022-12-07T01:23:15.073Z,100.00
2022-12-07T01:26:18.717Z,100.00
2022-12-07T01:29:21.236Z,100.00
2022-12-07T01:32:23.509Z,100.00
2022-12-07T01:35:26.093Z,100.00
2022-12-07T01:38:28.846Z,100.00
2022-12-07T01:41:32.604Z,100.00
2022-12-07T01:44:54.827Z,100.00
2022-12-07T01:47:57.878Z,100.00
2022-12-07T01:51:02.725Z,100.00
2022-12-07T01:54:05.423Z,100.00
2022-12-07T01:57:08.681Z,100.00
2022-12-07T02:00:12.083Z,100.00
2022-12-07T02:03:20.718Z,100.00
2022-12-07T02:06:25.466Z,100.00
2022-12-07T02:09:27.841Z,100.00
2022-12-07T02:12:30.453Z,100.00
2022-12-07T02:15:42.858Z,100.00
2022-12-07T02:18:46.390Z,100.00
2022-12-07T02:22:07.124Z,100.00
2022-12-07T02:25:45.094Z,100.00
2022-12-07T02:28:47.329Z,100.00
2022-12-07T02:32:08.865Z,100.00
2022-12-07T02:35:20.454Z,100.00
2022-12-07T02:38:28.719Z,100.00
2022-12-07T02:41:34.773Z,100.00
2022-12-07T02:44:37.621Z,100.00
2022-12-07T02:47:40.648Z,100.00
2022-12-07T02:51:01.689Z,100.00
2022-12-07T02:54:04.031Z,100.00
2022-12-07T02:57:15.466Z,100.00
2022-12-07T03:00:19.829Z,100.00
2022-12-07T03:03:23.397Z,100.00
2022-12-07T03:06:32.590Z,100.00
2022-12-07T03:09:55.549Z,100.00
2022-12-07T03:13:22.962Z,100.00
2022-12-07T03:16:31.673Z,100.00
2022-12-07T03:19:35.042Z,100.00
2022-12-07T03:22:39.366Z,100.00
2022-12-07T03:25:47.789Z,100.00
2022-12-07T03:28:52.462Z,100.00
2022-12-07T03:32:16.917Z,100.00
2022-12-07T03:35:38.764Z,100.00
2022-12-07T03:39:01.698Z,100.00
2022-12-07T03:42:06.181Z,100.00
2022-12-07T03:45:08.701Z,100.00
2022-12-07T03:48:21.785Z,100.00
2022-12-07T03:51:29.561Z,100.00
2022-12-07T03:54:37.609Z,100.00
2022-12-07T03:57:40.517Z,100.00
2022-12-07T04:00:43.785Z,100.00
2022-12-07T04:03:46.405Z,100.00
2022-12-07T04:06:48.628Z,100.00
2022-12-07T04:09:51.453Z,100.00
2022-12-07T04:12:53.807Z,100.00
2022-12-07T04:15:56.455Z,100.00
2022-12-07T04:18:58.689Z,100.00
2022-12-07T04:22:02.053Z,100.00
2022-12-07T04:25:04.565Z,100.00
2022-12-07T04:28:07.164Z,100.00
2022-12-07T04:31:09.397Z,100.00
2022-12-07T04:34:12.676Z,100.00
2022-12-07T04:37:14.918Z,100.00
2022-12-07T04:40:17.511Z,100.00
2022-12-07T04:43:19.757Z,100.00
2022-12-07T04:46:22.310Z,100.00
2022-12-07T04:49:25.277Z,100.00
2022-12-07T04:52:27.674Z,100.00
2022-12-07T04:55:29.859Z,100.00
2022-12-07T04:58:32.371Z,100.00
2022-12-07T05:01:35.007Z,100.00
2022-12-07T05:04:37.498Z,100.00
2022-12-07T05:07:39.672Z,100.00
2022-12-07T05:10:42.198Z,100.00
2022-12-07T05:13:44.363Z,100.00
2022-12-07T05:16:48.694Z,100.00
2022-12-07T05:19:51.167Z,100.00
2022-12-07T05:22:53.662Z,100.00
2022-12-07T05:25:55.855Z,100.00
2022-12-07T05:28:58.851Z,100.00
2022-12-07T05:32:01.149Z,100.00
2022-12-07T05:35:06.547Z,100.00
2022-12-07T05:38:08.790Z,100.00
2022-12-07T05:41:33.646Z,100.00
2022-12-07T05:44:35.922Z,100.00
2022-12-07T05:47:38.726Z,100.00
2022-12-07T05:50:40.998Z,100.00
2022-12-07T05:53:43.699Z,100.00
2022-12-07T05:56:46.019Z,100.00
2022-12-07T05:59:48.835Z,100.00
2022-12-07T06:02:51.192Z,100.00
2022-12-07T06:05:54.237Z,100.00
2022-12-07T06:08:56.437Z,100.00
2022-12-07T06:12:17.981Z,100.00
2022-12-07T06:15:20.180Z,100.00
2022-12-07T06:18:22.681Z,100.00
2022-12-07T06:21:26.738Z,100.00
2022-12-07T06:24:29.305Z,100.00
2022-12-07T06:27:32.410Z,100.00
2022-12-07T06:30:34.886Z,100.00
2022-12-07T06:33:37.500Z,100.00
2022-12-07T06:36:40.539Z,100.00
2022-12-07T06:39:42.784Z,100.00
2022-12-07T06:42:45.375Z,100.00
2022-12-07T06:45:47.649Z,100.00
2022-12-07T06:48:50.248Z,100.00
2022-12-07T06:51:52.452Z,100.00
2022-12-07T06:54:54.929Z,100.00
2022-12-07T06:57:57.149Z,100.00
2022-12-07T07:00:59.769Z,100.00
2022-12-07T07:04:02.035Z,100.00
2022-12-07T07:07:04.527Z,100.00
2022-12-07T07:10:07.170Z,100.00
2022-12-07T07:13:09.772Z,100.00
2022-12-07T07:16:12.092Z,100.00
2022-12-07T07:19:14.701Z,100.00
2022-12-07T07:22:16.959Z,100.00
2022-12-07T07:25:19.933Z,100.00
2022-12-07T07:28:22.351Z,100.00
2022-12-07T07:31:25.013Z,100.00
2022-12-07T07:34:27.510Z,100.00
2022-12-07T07:37:30.054Z,100.00
2022-12-07T07:40:32.378Z,100.00
2022-12-07T07:43:34.958Z,100.00
2022-12-07T07:46:37.269Z,100.00
2022-12-07T07:49:47.564Z,100.00
2022-12-07T07:52:50.508Z,100.00
2022-12-07T07:55:56.015Z,100.00
2022-12-07T07:58:58.264Z,100.00
2022-12-07T08:02:00.919Z,100.00
2022-12-07T08:05:03.671Z,100.00
2022-12-07T08:08:06.071Z,100.00
2022-12-07T08:11:09.521Z,100.00
2022-12-07T08:14:12.174Z,100.00
2022-12-07T08:17:14.793Z,100.00
2022-12-07T08:20:17.210Z,100.00
2022-12-07T08:23:19.707Z,100.00
2022-12-07T08:26:22.103Z,100.00
2022-12-07T08:29:25.609Z,100.00
2022-12-07T08:32:27.877Z,100.00
2022-12-07T08:35:30.378Z,100.00
2022-12-07T08:38:32.733Z,100.00
2022-12-07T08:41:35.697Z,100.00
2022-12-07T08:44:37.923Z,100.00
2022-12-07T08:47:46.507Z,100.00
2022-12-07T08:50:49.929Z,100.00
2022-12-07T08:53:53.393Z,100.00
2022-12-07T08:56:59.355Z,100.00
2022-12-07T09:00:03.579Z,100.00
2022-12-07T09:03:06.376Z,100.00
2022-12-07T09:06:09.366Z,100.00
2022-12-07T09:09:12.750Z,100.00
2022-12-07T09:12:15.346Z,100.00
2022-12-07T09:15:17.610Z,100.00
2022-12-07T09:18:21.944Z,100.00
2022-12-07T09:21:24.833Z,100.00
2022-12-07T09:24:27.479Z,100.00
2022-12-07T09:27:30.147Z,100.00
2022-12-07T09:30:39.170Z,100.00
2022-12-07T09:33:59.379Z,100.00
2022-12-07T09:37:02.716Z,100.00
2022-12-07T09:40:05.581Z,100.00
2022-12-07T09:43:13.489Z,100.00
2022-12-07T09:46:16.955Z,100.00
2022-12-07T09:49:25.028Z,100.00
2022-12-07T09:52:34.191Z,100.00
2022-12-07T09:55:41.835Z,100.00
2022-12-07T09:58:44.689Z,100.00
2022-12-07T10:01:48.500Z,100.00
2022-12-07T10:04:51.092Z,100.00
2022-12-07T10:07:53.507Z,100.00
2022-12-07T10:10:57.369Z,98.91
2022-12-07T10:14:11.162Z,98.70
2022-12-07T10:17:32.113Z,98.53
2022-12-07T10:20:35.206Z,95.65
2022-12-07T10:23:39.412Z,97.97
2022-12-07T10:26:47.873Z,95.79
2022-12-07T10:29:54.126Z,94.27
2022-12-07T10:32:56.344Z,92.22
2022-12-07T10:35:59.363Z,90.26
2022-12-07T10:39:05.333Z,89.07
2022-12-07T10:42:16.256Z,89.95
2022-12-07T10:45:19.931Z,89.80
2022-12-07T10:48:28.758Z,86.63
2022-12-07T10:51:34.651Z,87.44
2022-12-07T10:55:00.142Z,91.73
2022-12-07T10:58:02.458Z,88.13
2022-12-07T11:01:08.110Z,88.57
2022-12-07T11:04:13.554Z,88.31
2022-12-07T11:07:23.627Z,88.78
2022-12-07T11:10:30.671Z,87.66
2022-12-07T11:13:49.779Z,86.28
2022-12-07T11:17:05.031Z,88.29
2022-12-07T11:20:13.750Z,88.93
2022-12-07T11:23:34.970Z,87.86
2022-12-07T11:26:55.757Z,89.11
2022-12-07T11:30:04.988Z,90.69
2022-12-07T11:33:16.689Z,92.28
2022-12-07T11:36:18.881Z,91.43
2022-12-07T11:39:22.259Z,88.52
2022-12-07T11:42:30.816Z,89.73
2022-12-07T11:45:38.514Z,88.61
2022-12-07T11:48:56.028Z,89.68
2022-12-07T11:52:01.262Z,90.28
2022-12-07T11:55:06.429Z,91.61
2022-12-07T11:58:23.590Z,92.26
2022-12-07T12:01:32.646Z,95.31
2022-12-07T12:04:56.695Z,93.80
2022-12-07T12:11:32.002Z,91.16
2022-12-07T12:14:52.445Z,88.59
2022-12-07T12:17:54.933Z,92.11
2022-12-07T12:21:02.213Z,89.25
2022-12-07T12:24:16.876Z,90.12
2022-12-07T12:27:27.535Z,91.44
2022-12-07T12:30:35.906Z,91.46
2022-12-07T12:33:39.236Z,90.74
2022-12-07T12:36:41.709Z,92.47
2022-12-07T12:40:04.027Z,92.36
2022-12-07T12:43:26.590Z,94.12
2022-12-07T12:46:34.513Z,93.20
2022-12-07T12:49:37.218Z,92.85
2022-12-07T12:52:39.664Z,92.96
2022-12-07T12:55:43.012Z,90.56
2022-12-07T12:58:46.863Z,88.23
2022-12-07T13:01:51.040Z,87.49
2022-12-07T13:05:04.351Z,85.10
2022-12-07T13:08:19.337Z,86.80
2022-12-07T13:11:33.287Z,86.76
2022-12-07T13:14:41.919Z,86.05
2022-12-07T13:17:44.554Z,84.98
2022-12-07T13:20:48.817Z,83.93
2022-12-07T13:23:51.334Z,80.55
2022-12-07T13:26:56.913Z,82.14
2022-12-07T13:29:59.516Z,82.76
2022-12-07T13:33:04.624Z,82.84
2022-12-07T13:36:15.193Z,83.28
2022-12-07T13:39:19.397Z,85.89
2022-12-07T13:42:35.425Z,87.00
2022-12-07T13:45:50.713Z,89.00
2022-12-07T13:48:53.234Z,90.80
2022-12-07T13:52:07.799Z,92.10
2022-12-07T13:55:15.288Z,93.29
2022-12-07T13:58:17.993Z,94.99
2022-12-07T14:01:20.565Z,97.15
2022-12-07T14:04:36.670Z,97.11
2022-12-07T14:07:50.319Z,98.38
2022-12-07T14:10:52.871Z,100.00
2022-12-07T14:14:04.378Z,99.32
2022-12-07T14:17:16.240Z,100.00
2022-12-07T14:20:32.549Z,100.00
2022-12-07T14:23:35.156Z,100.00
2022-12-07T14:26:39.052Z,100.00
2022-12-07T14:29:41.586Z,100.00
2022-12-07T14:32:49.306Z,100.00
2022-12-07T14:35:56.181Z,100.00
2022-12-07T14:39:00.479Z,100.00
2022-12-07T14:42:03.515Z,100.00
2022-12-07T14:45:06.841Z,100.00
2022-12-07T14:55:02.237Z,100.00
2022-12-07T14:58:05.018Z,100.00
2022-12-07T15:01:07.858Z,100.00
2022-12-07T15:04:10.356Z,100.00
2022-12-07T15:07:20.573Z,100.00
2022-12-07T15:10:32.637Z,100.00
2022-12-07T15:13:53.866Z,100.00
2022-12-07T15:17:22.066Z,100.00
2022-12-07T15:20:19.274Z,100.00
2022-12-07T15:23:22.045Z,100.00
2022-12-07T15:26:24.631Z,100.00
2022-12-07T15:29:27.098Z,100.00
2022-12-07T15:32:30.063Z,100.00
2022-12-07T15:35:32.427Z,100.00
2022-12-07T15:39:05.599Z,100.00
2022-12-07T15:41:58.341Z,100.00
2022-12-07T15:45:07.688Z,100.00
2022-12-07T15:51:33.049Z,100.00
2022-12-07T15:54:35.375Z,100.00
2022-12-07T15:57:38.475Z,100.00
2022-12-07T16:00:40.740Z,100.00
2022-12-07T16:03:43.699Z,100.00
2022-12-07T16:06:46.077Z,100.00
2022-12-07T16:09:50.472Z,100.00
2022-12-07T16:12:52.757Z,100.00
2022-12-07T16:15:56.629Z,100.00
2022-12-07T16:18:59.006Z,100.00
2022-12-07T16:22:01.594Z,100.00
2022-12-07T16:25:04.210Z,100.00
2022-12-07T16:28:06.838Z,100.00
2022-12-07T16:31:14.233Z,100.00
2022-12-07T16:34:16.806Z,100.00
2022-12-07T16:37:19.112Z,100.00
2022-12-07T16:40:21.835Z,100.00
2022-12-07T16:43:24.150Z,100.00
2022-12-07T16:46:26.723Z,100.00
2022-12-07T16:49:29.647Z,100.00
2022-12-07T16:52:32.220Z,100.00
2022-12-07T16:55:38.382Z,100.00
2022-12-07T16:58:42.987Z,100.00
2022-12-07T17:01:45.208Z,100.00
2022-12-07T17:04:47.866Z,100.00
2022-12-07T17:07:50.242Z,100.00
2022-12-07T17:10:52.931Z,100.00
2022-12-07T17:14:14.055Z,100.00
2022-12-07T17:17:16.601Z,100.00
2022-12-07T17:20:19.314Z,100.00
2022-12-07T17:23:22.564Z,100.00
2022-12-07T17:26:28.335Z,100.00
2022-12-07T17:29:34.976Z,100.00
2022-12-07T17:32:37.584Z,100.00
2022-12-07T17:35:40.195Z,100.00
2022-12-07T17:38:42.904Z,100.00
2022-12-07T17:42:03.952Z,100.00
2022-12-07T17:45:07.819Z,100.00
2022-12-07T17:48:10.338Z,100.00
2022-12-07T17:51:31.541Z,100.00
2022-12-07T17:54:34.068Z,100.00
2022-12-07T17:57:36.405Z,100.00
2022-12-07T18:00:39.296Z,100.00
2022-12-07T18:03:42.140Z,100.00
2022-12-07T18:06:50.396Z,100.00
2022-12-07T18:09:54.790Z,100.00
2022-12-07T18:13:16.999Z,100.00
2022-12-07T18:16:21.358Z,100.00
2022-12-07T18:19:23.799Z,100.00
2022-12-07T18:22:26.383Z,100.00
2022-12-07T18:25:28.617Z,100.00
2022-12-07T18:28:31.479Z,100.00
2022-12-07T18:31:35.223Z,100.00
2022-12-07T18:34:37.878Z,100.00
2022-12-07T18:37:40.923Z,100.00
2022-12-07T18:40:44.777Z,100.00
2022-12-07T18:43:46.942Z,100.00
2022-12-07T18:46:49.502Z,100.00
2022-12-07T18:49:52.386Z,100.00
2022-12-07T18:52:56.877Z,100.00
2022-12-07T18:56:25.711Z,100.00
2022-12-07T18:59:46.682Z,100.00
2022-12-07T19:02:53.042Z,100.00
2022-12-07T19:05:57.767Z,100.00
2022-12-07T19:09:00.460Z,100.00
2022-12-07T19:12:05.510Z,100.00
2022-12-07T19:15:08.772Z,100.00
2022-12-07T19:18:11.279Z,100.00
2022-12-07T19:21:13.506Z,100.00
2022-12-07T19:24:22.854Z,100.00
2022-12-07T19:27:27.306Z,100.00
2022-12-07T19:30:29.867Z,100.00
2022-12-07T19:33:32.095Z,100.00
2022-12-07T19:36:34.760Z,100.00
2022-12-07T19:39:37.593Z,100.00
2022-12-07T19:42:40.209Z,100.00
2022-12-07T19:45:42.615Z,100.00
2022-12-07T19:48:45.153Z,100.00
2022-12-07T19:51:49.768Z,100.00
2022-12-07T19:54:52.460Z,100.00
2022-12-07T19:57:54.668Z,100.00
2022-12-07T20:01:02.509Z,100.00
2022-12-07T20:04:06.359Z,100.00
2022-12-07T20:07:08.624Z,100.00
2022-12-07T20:10:11.351Z,100.00
2022-12-07T20:13:28.785Z,100.00
2022-12-07T20:16:31.437Z,100.00
2022-12-07T20:19:35.631Z,100.00
2022-12-07T20:22:38.279Z,100.00
2022-12-07T20:25:40.564Z,100.00
2022-12-07T20:28:46.340Z,100.00
2022-12-07T20:31:49.252Z,100.00
2022-12-07T20:34:51.886Z,100.00
2022-12-07T20:37:54.214Z,100.00
2022-12-07T20:40:59.686Z,100.00
2022-12-07T20:44:02.215Z,100.00
2022-12-07T20:47:06.442Z,100.00
2022-12-07T20:50:08.933Z,100.00
2022-12-07T20:53:11.461Z,100.00
2022-12-07T20:56:19.684Z,100.00
2022-12-07T20:59:22.185Z,100.00
2022-12-07T21:02:26.022Z,100.00
2022-12-07T21:05:28.665Z,100.00
2022-12-07T21:08:31.031Z,100.00
2022-12-07T21:11:33.815Z,100.00
2022-12-07T21:14:36.052Z,100.00
2022-12-07T21:17:39.656Z,100.00
2022-12-07T21:20:42.019Z,100.00
2022-12-07T21:23:44.813Z,100.00
2022-12-07T21:26:47.054Z,100.00
2022-12-07T21:29:54.070Z,100.00
2022-12-07T21:32:56.799Z,100.00
2022-12-07T21:35:59.688Z,100.00
2022-12-07T21:39:02.078Z,100.00
2022-12-07T21:42:04.641Z,100.00
2022-12-07T21:45:07.142Z,100.00
2022-12-07T21:48:09.922Z,100.00
2022-12-07T21:51:13.586Z,100.00
2022-12-07T21:54:16.135Z,100.00
2022-12-07T21:57:18.406Z,100.00
2022-12-07T22:00:24.749Z,100.00
2022-12-07T22:03:27.343Z,100.00
2022-12-07T22:06:29.607Z,100.00
2022-12-07T22:09:32.466Z,100.00
2022-12-07T22:12:34.684Z,100.00
2022-12-07T22:15:40.221Z,100.00
2022-12-07T22:18:43.389Z,100.00
2022-12-07T22:21:46.028Z,100.00
2022-12-07T22:24:48.381Z,100.00
2022-12-07T22:27:50.830Z,100.00
2022-12-07T22:30:53.095Z,100.00
2022-12-07T22:33:55.734Z,100.00
2022-12-07T22:36:57.997Z,100.00
2022-12-07T22:40:00.749Z,100.00
2022-12-07T22:43:03.006Z,100.00
2022-12-07T22:46:05.740Z,100.00
2022-12-07T22:49:08.172Z,100.00
2022-12-07T22:52:10.754Z,100.00
2022-12-07T22:55:13.042Z,100.00
2022-12-07T22:58:16.145Z,100.00
2022-12-07T23:01:27.948Z,100.00
2022-12-07T23:04:30.540Z,100.00
2022-12-07T23:07:32.784Z,100.00
2022-12-07T23:10:35.559Z,100.00
2022-12-07T23:13:38.193Z,100.00
2022-12-07T23:16:40.950Z,100.00
2022-12-07T23:19:43.398Z,100.00
2022-12-07T23:22:45.952Z,100.00
2022-12-07T23:25:48.419Z,100.00
2022-12-07T23:28:51.499Z,100.00
2022-12-07T23:31:53.780Z,100.00
2022-12-07T23:34:56.538Z,100.00
2022-12-07T23:37:58.782Z,100.00
2022-12-07T23:41:04.169Z,100.00
2022-12-07T23:44:06.600Z,100.00
2022-12-07T23:47:09.234Z,100.00
2022-12-07T23:50:11.607Z,100.00
2022-12-07T23:53:14.243Z,100.00
2022-12-07T23:56:18.455Z,100.00
2022-12-07T23:59:20.943Z,100.00
